sensor_id;sensor_type;location;lat;lon;timestamp;temperature;humidity
8882;DHT22;4477;48.736;9.176;2023-06-04T05:02:37;19.00;56.70
8882;DHT22;4477;48.736;9.176;2023-06-04T05:05:05;13.90;80.60
8882;DHT22;4477;48.736;9.176;2023-06-04T05:07:32;13.80;78.30
8882;DHT22;4477;48.736;9.176;2023-06-04T05:09:59;13.60;77.60
8882;DHT22;4477;48.736;9.176;2023-06-04T05:12:26;13.60;77.80
8882;DHT22;4477;48.736;9.176;2023-06-04T05:14:53;13.80;78.30
8882;DHT22;4477;48.736;9.176;2023-06-04T05:17:21;13.90;78.80
8882;DHT22;4477;48.736;9.176;2023-06-04T05:19:55;13.90;76.90
8882;DHT22;4477;48.736;9.176;2023-06-04T05:22:28;14.10;76.10
8882;DHT22;4477;48.736;9.176;2023-06-04T05:24:55;14.50;74.20
8882;DHT22;4477;48.736;9.176;2023-06-04T05:27:25;15.10;73.10
8882;DHT22;4477;48.736;9.176;2023-06-04T05:29:52;15.50;70.50
8882;DHT22;4477;48.736;9.176;2023-06-04T05:32:20;16.10;68.80
8882;DHT22;4477;48.736;9.176;2023-06-04T05:34:48;16.50;67.50
8882;DHT22;4477;48.736;9.176;2023-06-04T05:37:15;17.10;63.90
8882;DHT22;4477;48.736;9.176;2023-06-04T05:39:43;17.40;63.70
8882;DHT22;4477;48.736;9.176;2023-06-04T05:42:09;17.70;60.80
8882;DHT22;4477;48.736;9.176;2023-06-04T05:44:37;18.10;60.70
8882;DHT22;4477;48.736;9.176;2023-06-04T05:47:04;18.30;59.80
8882;DHT22;4477;48.736;9.176;2023-06-04T05:49:33;18.60;59.20
8882;DHT22;4477;48.736;9.176;2023-06-04T05:52:00;19.00;57.50
8882;DHT22;4477;48.736;9.176;2023-06-04T05:54:29;19.10;56.90
8882;DHT22;4477;48.736;9.176;2023-06-04T05:56:56;18.90;57.40
8882;DHT22;4477;48.736;9.176;2023-06-04T05:59:23;18.50;58.20
8882;DHT22;4477;48.736;9.176;2023-06-04T06:01:50;17.80;59.40
8882;DHT22;4477;48.736;9.176;2023-06-04T06:04:17;17.10;60.90
8882;DHT22;4477;48.736;9.176;2023-06-04T06:06:45;16.60;64.60
8882;DHT22;4477;48.736;9.176;2023-06-04T06:09:14;16.20;65.60
8882;DHT22;4477;48.736;9.176;2023-06-04T06:11:41;16.00;67.60
8882;DHT22;4477;48.736;9.176;2023-06-04T06:14:08;15.80;67.80
8882;DHT22;4477;48.736;9.176;2023-06-04T06:16:36;16.00;69.00
8882;DHT22;4477;48.736;9.176;2023-06-04T06:19:03;16.80;65.20
8882;DHT22;4477;48.736;9.176;2023-06-04T06:21:30;17.00;62.80
8882;DHT22;4477;48.736;9.176;2023-06-04T06:23:58;17.30;62.30
8882;DHT22;4477;48.736;9.176;2023-06-04T06:26:25;18.00;59.80
8882;DHT22;4477;48.736;9.176;2023-06-04T06:28:52;19.10;57.00
8882;DHT22;4477;48.736;9.176;2023-06-04T06:31:19;20.00;56.00
8882;DHT22;4477;48.736;9.176;2023-06-04T06:33:46;20.80;54.50
8882;DHT22;4477;48.736;9.176;2023-06-04T06:36:13;21.20;54.10
8882;DHT22;4477;48.736;9.176;2023-06-04T06:38:44;21.60;53.20
8882;DHT22;4477;48.736;9.176;2023-06-04T06:41:13;22.00;51.10
8882;DHT22;4477;48.736;9.176;2023-06-04T06:43:40;22.80;50.70
8882;DHT22;4477;48.736;9.176;2023-06-04T06:46:06;23.20;49.40
8882;DHT22;4477;48.736;9.176;2023-06-04T06:48:33;23.10;49.50
8882;DHT22;4477;48.736;9.176;2023-06-04T06:51:00;23.30;48.60
8882;DHT22;4477;48.736;9.176;2023-06-04T06:53:27;23.50;47.10
8882;DHT22;4477;48.736;9.176;2023-06-04T06:55:54;23.20;49.60
8882;DHT22;4477;48.736;9.176;2023-06-04T06:58:22;23.10;48.20
8882;DHT22;4477;48.736;9.176;2023-06-04T07:00:49;23.10;47.20
8882;DHT22;4477;48.736;9.176;2023-06-04T07:03:16;23.10;48.10
8882;DHT22;4477;48.736;9.176;2023-06-04T07:05:43;23.50;46.30
8882;DHT22;4477;48.736;9.176;2023-06-04T07:08:10;23.60;45.70
8882;DHT22;4477;48.736;9.176;2023-06-04T07:10:36;23.70;47.90
8882;DHT22;4477;48.736;9.176;2023-06-04T07:13:03;24.00;47.10
8882;DHT22;4477;48.736;9.176;2023-06-04T07:15:31;24.30;47.00
8882;DHT22;4477;48.736;9.176;2023-06-04T07:17:58;24.30;46.80
8882;DHT22;4477;48.736;9.176;2023-06-04T07:20:25;24.40;46.00
8882;DHT22;4477;48.736;9.176;2023-06-04T07:22:52;24.60;46.00
8882;DHT22;4477;48.736;9.176;2023-06-04T07:25:19;24.70;46.20
8882;DHT22;4477;48.736;9.176;2023-06-04T07:27:48;25.00;45.30
8882;DHT22;4477;48.736;9.176;2023-06-04T07:30:16;25.30;45.70
8882;DHT22;4477;48.736;9.176;2023-06-04T07:32:47;25.30;43.20
8882;DHT22;4477;48.736;9.176;2023-06-04T07:37:42;25.30;45.80
8882;DHT22;4477;48.736;9.176;2023-06-04T07:40:11;25.60;43.80
8882;DHT22;4477;48.736;9.176;2023-06-04T07:42:38;25.40;44.00
8882;DHT22;4477;48.736;9.176;2023-06-04T07:45:07;25.20;43.50
8882;DHT22;4477;48.736;9.176;2023-06-04T07:47:35;25.20;44.40
8882;DHT22;4477;48.736;9.176;2023-06-04T07:50:04;25.00;45.50
8882;DHT22;4477;48.736;9.176;2023-06-04T07:52:32;25.20;47.20
8882;DHT22;4477;48.736;9.176;2023-06-04T07:54:59;25.70;46.10
8882;DHT22;4477;48.736;9.176;2023-06-04T07:57:26;26.00;43.50
8882;DHT22;4477;48.736;9.176;2023-06-04T07:59:53;25.80;44.70
8882;DHT22;4477;48.736;9.176;2023-06-04T08:02:20;25.90;44.70
8882;DHT22;4477;48.736;9.176;2023-06-04T08:09:43;26.10;44.40
8882;DHT22;4477;48.736;9.176;2023-06-04T08:12:11;26.50;45.00
8882;DHT22;4477;48.736;9.176;2023-06-04T08:14:38;26.80;43.60
8882;DHT22;4477;48.736;9.176;2023-06-04T08:17:04;27.10;43.60
8882;DHT22;4477;48.736;9.176;2023-06-04T08:21:58;27.10;41.80
8882;DHT22;4477;48.736;9.176;2023-06-04T08:24:27;26.50;43.50
8882;DHT22;4477;48.736;9.176;2023-06-04T08:26:54;26.10;42.30
8882;DHT22;4477;48.736;9.176;2023-06-04T08:29:21;25.90;44.30
8882;DHT22;4477;48.736;9.176;2023-06-04T08:31:48;26.10;46.70
8882;DHT22;4477;48.736;9.176;2023-06-04T08:34:14;26.20;44.90
8882;DHT22;4477;48.736;9.176;2023-06-04T08:36:41;26.20;47.20
8882;DHT22;4477;48.736;9.176;2023-06-04T08:39:08;26.50;47.40
8882;DHT22;4477;48.736;9.176;2023-06-04T08:41:42;26.70;43.70
8882;DHT22;4477;48.736;9.176;2023-06-04T08:44:10;26.70;44.70
8882;DHT22;4477;48.736;9.176;2023-06-04T08:46:38;26.20;44.30
8882;DHT22;4477;48.736;9.176;2023-06-04T08:49:06;26.50;46.40
8882;DHT22;4477;48.736;9.176;2023-06-04T08:51:36;26.60;45.70
8882;DHT22;4477;48.736;9.176;2023-06-04T08:54:04;26.60;44.10
8882;DHT22;4477;48.736;9.176;2023-06-04T08:56:31;26.70;43.00
8882;DHT22;4477;48.736;9.176;2023-06-04T08:59:01;27.00;45.00
8882;DHT22;4477;48.736;9.176;2023-06-04T09:01:29;26.90;43.80
8882;DHT22;4477;48.736;9.176;2023-06-04T09:03:57;26.80;43.20
8882;DHT22;4477;48.736;9.176;2023-06-04T09:06:25;26.70;43.10
8882;DHT22;4477;48.736;9.176;2023-06-04T09:08:54;26.60;42.80
8882;DHT22;4477;48.736;9.176;2023-06-04T09:11:23;26.60;44.20
8882;DHT22;4477;48.736;9.176;2023-06-04T09:13:53;26.30;44.90
8882;DHT22;4477;48.736;9.176;2023-06-04T09:16:25;26.60;44.10
8882;DHT22;4477;48.736;9.176;2023-06-04T09:18:53;26.90;41.00
8882;DHT22;4477;48.736;9.176;2023-06-04T09:21:19;26.90;42.40
8882;DHT22;4477;48.736;9.176;2023-06-04T09:23:47;26.90;42.10
8882;DHT22;4477;48.736;9.176;2023-06-04T09:26:14;27.10;42.50
8882;DHT22;4477;48.736;9.176;2023-06-04T09:28:41;27.40;42.50
8882;DHT22;4477;48.736;9.176;2023-06-04T09:31:09;27.10;41.70
8882;DHT22;4477;48.736;9.176;2023-06-04T09:33:44;27.20;40.20
8882;DHT22;4477;48.736;9.176;2023-06-04T09:36:11;27.20;42.90
8882;DHT22;4477;48.736;9.176;2023-06-04T09:38:38;27.70;43.10
8882;DHT22;4477;48.736;9.176;2023-06-04T09:41:11;28.00;41.80
8882;DHT22;4477;48.736;9.176;2023-06-04T09:43:38;27.90;42.70
8882;DHT22;4477;48.736;9.176;2023-06-04T09:46:09;27.90;39.80
8882;DHT22;4477;48.736;9.176;2023-06-04T09:48:37;28.10;41.30
8882;DHT22;4477;48.736;9.176;2023-06-04T09:51:10;27.60;40.80
8882;DHT22;4477;48.736;9.176;2023-06-04T09:53:38;27.90;42.10
8882;DHT22;4477;48.736;9.176;2023-06-04T09:56:06;28.20;41.20
8882;DHT22;4477;48.736;9.176;2023-06-04T09:58:34;28.60;38.40
8882;DHT22;4477;48.736;9.176;2023-06-04T10:01:03;28.60;38.40
8882;DHT22;4477;48.736;9.176;2023-06-04T10:03:32;28.70;38.60
8882;DHT22;4477;48.736;9.176;2023-06-04T10:06:01;28.70;40.50
8882;DHT22;4477;48.736;9.176;2023-06-04T10:08:30;28.70;38.90
8882;DHT22;4477;48.736;9.176;2023-06-04T10:11:00;29.10;40.00
8882;DHT22;4477;48.736;9.176;2023-06-04T10:13:29;29.40;39.60
8882;DHT22;4477;48.736;9.176;2023-06-04T10:15:57;29.60;38.10
8882;DHT22;4477;48.736;9.176;2023-06-04T10:18:26;29.50;39.20
8882;DHT22;4477;48.736;9.176;2023-06-04T10:20:55;29.60;39.70
8882;DHT22;4477;48.736;9.176;2023-06-04T10:23:23;29.10;42.10
8882;DHT22;4477;48.736;9.176;2023-06-04T10:25:52;29.10;38.20
8882;DHT22;4477;48.736;9.176;2023-06-04T10:28:20;29.20;37.40
8882;DHT22;4477;48.736;9.176;2023-06-04T10:30:47;29.10;35.50
8882;DHT22;4477;48.736;9.176;2023-06-04T10:33:17;29.40;36.30
8882;DHT22;4477;48.736;9.176;2023-06-04T10:35:45;29.60;37.30
8882;DHT22;4477;48.736;9.176;2023-06-04T10:38:13;29.80;36.80
8882;DHT22;4477;48.736;9.176;2023-06-04T10:40:42;29.70;35.60
8882;DHT22;4477;48.736;9.176;2023-06-04T10:43:11;29.40;35.10
8882;DHT22;4477;48.736;9.176;2023-06-04T10:45:38;29.20;40.90
8882;DHT22;4477;48.736;9.176;2023-06-04T10:48:07;29.90;37.40
8882;DHT22;4477;48.736;9.176;2023-06-04T10:50:34;30.40;35.70
8882;DHT22;4477;48.736;9.176;2023-06-04T10:53:01;30.00;36.30
8882;DHT22;4477;48.736;9.176;2023-06-04T10:55:29;29.70;36.20
8882;DHT22;4477;48.736;9.176;2023-06-04T10:57:58;29.80;39.10
8882;DHT22;4477;48.736;9.176;2023-06-04T11:00:36;29.90;34.40
8882;DHT22;4477;48.736;9.176;2023-06-04T11:03:04;29.90;38.10
8882;DHT22;4477;48.736;9.176;2023-06-04T11:05:35;29.90;38.90
8882;DHT22;4477;48.736;9.176;2023-06-04T11:08:03;30.10;36.00
8882;DHT22;4477;48.736;9.176;2023-06-04T11:10:34;30.00;36.10
8882;DHT22;4477;48.736;9.176;2023-06-04T11:13:02;30.30;33.70
8882;DHT22;4477;48.736;9.176;2023-06-04T11:15:39;30.50;36.80
8882;DHT22;4477;48.736;9.176;2023-06-04T11:18:06;30.20;32.70
8882;DHT22;4477;48.736;9.176;2023-06-04T11:20:33;30.20;32.20
8882;DHT22;4477;48.736;9.176;2023-06-04T11:23:00;29.70;36.80
8882;DHT22;4477;48.736;9.176;2023-06-04T11:25:29;29.90;33.70
8882;DHT22;4477;48.736;9.176;2023-06-04T11:27:56;30.60;35.40
8882;DHT22;4477;48.736;9.176;2023-06-04T11:30:24;30.60;36.90
8882;DHT22;4477;48.736;9.176;2023-06-04T11:33:01;30.30;36.30
8882;DHT22;4477;48.736;9.176;2023-06-04T11:35:28;30.60;34.50
8882;DHT22;4477;48.736;9.176;2023-06-04T11:37:58;30.80;35.10
8882;DHT22;4477;48.736;9.176;2023-06-04T11:40:25;31.20;37.50
8882;DHT22;4477;48.736;9.176;2023-06-04T11:42:53;31.50;35.90
8882;DHT22;4477;48.736;9.176;2023-06-04T11:45:21;31.40;29.40
8882;DHT22;4477;48.736;9.176;2023-06-04T11:47:50;31.60;32.10
8882;DHT22;4477;48.736;9.176;2023-06-04T11:50:19;32.00;31.80
8882;DHT22;4477;48.736;9.176;2023-06-04T11:52:47;32.20;34.80
8882;DHT22;4477;48.736;9.176;2023-06-04T11:55:15;32.50;37.50
8882;DHT22;4477;48.736;9.176;2023-06-04T11:57:46;32.90;33.40
8882;DHT22;4477;48.736;9.176;2023-06-04T12:00:14;32.80;35.40
8882;DHT22;4477;48.736;9.176;2023-06-04T12:02:49;32.80;33.60
8882;DHT22;4477;48.736;9.176;2023-06-04T12:05:18;32.60;30.90
8882;DHT22;4477;48.736;9.176;2023-06-04T12:07:46;32.30;34.70
8882;DHT22;4477;48.736;9.176;2023-06-04T12:10:16;32.60;32.20
8882;DHT22;4477;48.736;9.176;2023-06-04T12:12:44;33.00;31.00
8882;DHT22;4477;48.736;9.176;2023-06-04T12:15:11;31.90;30.50
8882;DHT22;4477;48.736;9.176;2023-06-04T12:17:49;32.00;30.10
8882;DHT22;4477;48.736;9.176;2023-06-04T12:20:16;31.90;32.10
8882;DHT22;4477;48.736;9.176;2023-06-04T12:22:47;32.30;30.60
8882;DHT22;4477;48.736;9.176;2023-06-04T12:25:24;32.70;31.00
8882;DHT22;4477;48.736;9.176;2023-06-04T12:27:51;32.00;31.10
8882;DHT22;4477;48.736;9.176;2023-06-04T12:30:18;30.70;32.60
8882;DHT22;4477;48.736;9.176;2023-06-04T12:32:45;29.70;34.20
8882;DHT22;4477;48.736;9.176;2023-06-04T12:35:12;30.30;37.10
8882;DHT22;4477;48.736;9.176;2023-06-04T12:37:39;31.70;32.10
8882;DHT22;4477;48.736;9.176;2023-06-04T12:40:09;32.70;30.50
8882;DHT22;4477;48.736;9.176;2023-06-04T12:42:37;33.60;29.50
8882;DHT22;4477;48.736;9.176;2023-06-04T12:45:04;33.60;31.00
8882;DHT22;4477;48.736;9.176;2023-06-04T12:47:31;33.50;27.80
8882;DHT22;4477;48.736;9.176;2023-06-04T12:49:58;33.40;28.40
8882;DHT22;4477;48.736;9.176;2023-06-04T12:52:26;33.80;29.20
8882;DHT22;4477;48.736;9.176;2023-06-04T12:54:53;34.30;30.10
8882;DHT22;4477;48.736;9.176;2023-06-04T12:57:21;34.40;28.40
8882;DHT22;4477;48.736;9.176;2023-06-04T12:59:48;34.30;27.70
8882;DHT22;4477;48.736;9.176;2023-06-04T13:02:14;34.40;26.00
8882;DHT22;4477;48.736;9.176;2023-06-04T13:04:42;34.90;26.30
8882;DHT22;4477;48.736;9.176;2023-06-04T13:07:13;35.60;25.90
8882;DHT22;4477;48.736;9.176;2023-06-04T13:09:40;36.00;27.10
8882;DHT22;4477;48.736;9.176;2023-06-04T13:12:08;36.50;26.80
8882;DHT22;4477;48.736;9.176;2023-06-04T13:14:36;36.60;25.70
8882;DHT22;4477;48.736;9.176;2023-06-04T13:17:03;36.50;25.20
8882;DHT22;4477;48.736;9.176;2023-06-04T13:19:30;36.10;25.70
8882;DHT22;4477;48.736;9.176;2023-06-04T13:21:57;36.50;27.20
8882;DHT22;4477;48.736;9.176;2023-06-04T13:24:23;36.90;24.50
8882;DHT22;4477;48.736;9.176;2023-06-04T13:26:51;36.10;24.80
8882;DHT22;4477;48.736;9.176;2023-06-04T13:29:18;35.80;28.10
8882;DHT22;4477;48.736;9.176;2023-06-04T13:31:49;35.90;25.00
8882;DHT22;4477;48.736;9.176;2023-06-04T13:34:15;36.30;23.70
8882;DHT22;4477;48.736;9.176;2023-06-04T13:36:42;36.50;24.60
8882;DHT22;4477;48.736;9.176;2023-06-04T13:39:09;36.30;26.10
8882;DHT22;4477;48.736;9.176;2023-06-04T13:41:36;36.60;25.20
8882;DHT22;4477;48.736;9.176;2023-06-04T13:44:03;36.00;23.60
8882;DHT22;4477;48.736;9.176;2023-06-04T13:46:30;36.20;26.20
8882;DHT22;4477;48.736;9.176;2023-06-04T13:48:58;37.20;24.00
8882;DHT22;4477;48.736;9.176;2023-06-04T13:51:25;37.50;23.10
8882;DHT22;4477;48.736;9.176;2023-06-04T13:53:52;37.70;24.00
8882;DHT22;4477;48.736;9.176;2023-06-04T13:56:20;38.10;23.60
8882;DHT22;4477;48.736;9.176;2023-06-04T13:58:47;37.70;23.30
8882;DHT22;4477;48.736;9.176;2023-06-04T14:01:14;37.10;24.00
8882;DHT22;4477;48.736;9.176;2023-06-04T14:03:41;37.20;26.10
8882;DHT22;4477;48.736;9.176;2023-06-04T14:06:10;37.50;23.50
8882;DHT22;4477;48.736;9.176;2023-06-04T14:08:36;38.00;23.10
8882;DHT22;4477;48.736;9.176;2023-06-04T14:11:03;36.90;22.70
8882;DHT22;4477;48.736;9.176;2023-06-04T14:13:31;37.80;23.70
8882;DHT22;4477;48.736;9.176;2023-06-04T14:15:57;37.70;23.70
8882;DHT22;4477;48.736;9.176;2023-06-04T14:18:24;37.20;24.10
8882;DHT22;4477;48.736;9.176;2023-06-04T14:20:51;37.80;22.10
8882;DHT22;4477;48.736;9.176;2023-06-04T14:23:20;38.40;21.40
8882;DHT22;4477;48.736;9.176;2023-06-04T14:25:46;37.80;21.90
8882;DHT22;4477;48.736;9.176;2023-06-04T14:28:13;36.70;22.60
8882;DHT22;4477;48.736;9.176;2023-06-04T14:30:40;37.10;23.60
8882;DHT22;4477;48.736;9.176;2023-06-04T14:33:07;37.60;24.10
8882;DHT22;4477;48.736;9.176;2023-06-04T14:35:34;38.10;21.70
8882;DHT22;4477;48.736;9.176;2023-06-04T14:38:01;38.70;21.90
8882;DHT22;4477;48.736;9.176;2023-06-04T14:40:29;39.30;20.30
8882;DHT22;4477;48.736;9.176;2023-06-04T14:42:56;39.80;22.50
8882;DHT22;4477;48.736;9.176;2023-06-04T14:45:23;39.80;19.90
8882;DHT22;4477;48.736;9.176;2023-06-04T14:47:49;39.50;19.70
8882;DHT22;4477;48.736;9.176;2023-06-04T14:50:17;39.60;22.50
8882;DHT22;4477;48.736;9.176;2023-06-04T14:52:44;40.00;18.80
8882;DHT22;4477;48.736;9.176;2023-06-04T14:55:11;40.10;21.10
8882;DHT22;4477;48.736;9.176;2023-06-04T14:57:39;40.00;19.20
8882;DHT22;4477;48.736;9.176;2023-06-04T15:00:07;39.40;20.60
8882;DHT22;4477;48.736;9.176;2023-06-04T15:02:34;38.90;20.50
8882;DHT22;4477;48.736;9.176;2023-06-04T15:05:01;38.60;20.90
8882;DHT22;4477;48.736;9.176;2023-06-04T15:07:28;38.80;20.90
8882;DHT22;4477;48.736;9.176;2023-06-04T15:09:55;38.50;21.30
8882;DHT22;4477;48.736;9.176;2023-06-04T15:12:21;38.20;22.90
8882;DHT22;4477;48.736;9.176;2023-06-04T15:14:50;39.10;22.40
8882;DHT22;4477;48.736;9.176;2023-06-04T15:17:17;39.50;18.10
8882;DHT22;4477;48.736;9.176;2023-06-04T15:19:43;40.10;22.10
8882;DHT22;4477;48.736;9.176;2023-06-04T15:22:10;39.50;20.10
8882;DHT22;4477;48.736;9.176;2023-06-04T15:24:37;38.80;21.70
8882;DHT22;4477;48.736;9.176;2023-06-04T15:27:04;38.50;22.40
8882;DHT22;4477;48.736;9.176;2023-06-04T15:29:31;38.60;21.30
8882;DHT22;4477;48.736;9.176;2023-06-04T15:31:59;38.90;19.90
8882;DHT22;4477;48.736;9.176;2023-06-04T15:34:26;38.60;20.00
8882;DHT22;4477;48.736;9.176;2023-06-04T15:36:53;38.50;20.60
8882;DHT22;4477;48.736;9.176;2023-06-04T15:39:21;38.50;21.00
8882;DHT22;4477;48.736;9.176;2023-06-04T15:41:47;38.10;22.00
8882;DHT22;4477;48.736;9.176;2023-06-04T15:44:14;38.50;22.60
8882;DHT22;4477;48.736;9.176;2023-06-04T15:46:41;38.20;20.20
8882;DHT22;4477;48.736;9.176;2023-06-04T15:49:09;37.70;22.00
8882;DHT22;4477;48.736;9.176;2023-06-04T15:51:36;37.30;23.00
8882;DHT22;4477;48.736;9.176;2023-06-04T15:54:03;37.40;20.90
8882;DHT22;4477;48.736;9.176;2023-06-04T15:56:30;37.10;21.60
8882;DHT22;4477;48.736;9.176;2023-06-04T15:58:58;37.00;22.70
8882;DHT22;4477;48.736;9.176;2023-06-04T16:01:25;37.40;21.50
8882;DHT22;4477;48.736;9.176;2023-06-04T16:03:51;38.10;20.60
8882;DHT22;4477;48.736;9.176;2023-06-04T16:06:20;38.60;20.00
8882;DHT22;4477;48.736;9.176;2023-06-04T16:08:48;37.80;21.20
8882;DHT22;4477;48.736;9.176;2023-06-04T16:11:15;35.90;22.80
8882;DHT22;4477;48.736;9.176;2023-06-04T16:13:42;33.60;25.20
8882;DHT22;4477;48.736;9.176;2023-06-04T16:16:09;31.60;26.60
8882;DHT22;4477;48.736;9.176;2023-06-04T16:18:38;29.90;28.40
8882;DHT22;4477;48.736;9.176;2023-06-04T16:21:06;28.50;30.00
8882;DHT22;4477;48.736;9.176;2023-06-04T16:23:34;27.50;31.00
8882;DHT22;4477;48.736;9.176;2023-06-04T16:26:00;26.80;32.00
8882;DHT22;4477;48.736;9.176;2023-06-04T16:28:28;26.10;32.60
8882;DHT22;4477;48.736;9.176;2023-06-04T16:30:56;25.70;34.00
8882;DHT22;4477;48.736;9.176;2023-06-04T16:33:22;25.30;34.60
8882;DHT22;4477;48.736;9.176;2023-06-04T16:35:49;25.00;34.10
8882;DHT22;4477;48.736;9.176;2023-06-04T16:38:16;24.80;35.70
8882;DHT22;4477;48.736;9.176;2023-06-04T16:40:44;24.60;35.60
8882;DHT22;4477;48.736;9.176;2023-06-04T16:43:11;24.40;37.00
8882;DHT22;4477;48.736;9.176;2023-06-04T16:45:38;24.20;36.60
8882;DHT22;4477;48.736;9.176;2023-06-04T16:48:05;24.20;37.50
8882;DHT22;4477;48.736;9.176;2023-06-04T16:50:32;24.10;38.10
8882;DHT22;4477;48.736;9.176;2023-06-04T16:52:59;23.90;36.70
8882;DHT22;4477;48.736;9.176;2023-06-04T16:55:29;23.90;37.00
8882;DHT22;4477;48.736;9.176;2023-06-04T16:57:58;24.00;36.80
8882;DHT22;4477;48.736;9.176;2023-06-04T17:00:25;24.00;38.80
8882;DHT22;4477;48.736;9.176;2023-06-04T17:02:54;24.00;36.70
8882;DHT22;4477;48.736;9.176;2023-06-04T17:05:21;24.10;38.70
8882;DHT22;4477;48.736;9.176;2023-06-04T17:07:48;24.20;39.30
8882;DHT22;4477;48.736;9.176;2023-06-04T17:10:15;24.20;38.40
8882;DHT22;4477;48.736;9.176;2023-06-04T17:12:42;24.20;38.50
8882;DHT22;4477;48.736;9.176;2023-06-04T17:15:10;24.00;38.40
8882;DHT22;4477;48.736;9.176;2023-06-04T17:17:37;24.00;38.80
8882;DHT22;4477;48.736;9.176;2023-06-04T17:20:05;24.00;37.90
8882;DHT22;4477;48.736;9.176;2023-06-04T17:22:32;24.10;38.50
8882;DHT22;4477;48.736;9.176;2023-06-04T17:24:59;24.30;37.70
8882;DHT22;4477;48.736;9.176;2023-06-04T17:27:26;24.20;37.60
8882;DHT22;4477;48.736;9.176;2023-06-04T17:29:53;24.10;39.10
8882;DHT22;4477;48.736;9.176;2023-06-04T17:32:21;24.10;38.70
8882;DHT22;4477;48.736;9.176;2023-06-04T17:34:48;24.90;37.10
8882;DHT22;4477;48.736;9.176;2023-06-04T17:37:15;26.20;36.20
8882;DHT22;4477;48.736;9.176;2023-06-04T17:39:42;27.70;32.40
8882;DHT22;4477;48.736;9.176;2023-06-04T17:42:09;29.00;31.50
8882;DHT22;4477;48.736;9.176;2023-06-04T17:44:36;29.30;29.60
8882;DHT22;4477;48.736;9.176;2023-06-04T17:47:03;28.30;30.60
8882;DHT22;4477;48.736;9.176;2023-06-04T17:49:32;28.10;31.30
8882;DHT22;4477;48.736;9.176;2023-06-04T17:51:59;27.80;31.40
8882;DHT22;4477;48.736;9.176;2023-06-04T17:54:26;27.60;33.50
8882;DHT22;4477;48.736;9.176;2023-06-04T17:56:53;28.20;31.60
8882;DHT22;4477;48.736;9.176;2023-06-04T17:59:19;28.60;30.80
8882;DHT22;4477;48.736;9.176;2023-06-04T18:01:46;28.30;31.60
8882;DHT22;4477;48.736;9.176;2023-06-04T18:04:15;27.30;32.40
8882;DHT22;4477;48.736;9.176;2023-06-04T18:06:46;25.80;34.50
8882;DHT22;4477;48.736;9.176;2023-06-04T18:09:13;24.40;37.10
8882;DHT22;4477;48.736;9.176;2023-06-04T18:11:40;23.40;39.90
8882;DHT22;4477;48.736;9.176;2023-06-04T18:14:07;22.70;40.70
8882;DHT22;4477;48.736;9.176;2023-06-04T18:16:34;22.10;40.40
8882;DHT22;4477;48.736;9.176;2023-06-04T18:19:00;21.70;43.20
8882;DHT22;4477;48.736;9.176;2023-06-04T18:21:27;21.40;41.60
8882;DHT22;4477;48.736;9.176;2023-06-04T18:23:55;21.10;42.50
8882;DHT22;4477;48.736;9.176;2023-06-04T18:26:22;20.90;42.60
8882;DHT22;4477;48.736;9.176;2023-06-04T18:28:49;20.80;43.40
8882;DHT22;4477;48.736;9.176;2023-06-04T18:31:16;21.10;42.40
8882;DHT22;4477;48.736;9.176;2023-06-04T18:33:50;21.20;42.10
8882;DHT22;4477;48.736;9.176;2023-06-04T18:36:17;21.00;42.80
8882;DHT22;4477;48.736;9.176;2023-06-04T18:38:44;20.60;43.80
